Time;durP1;ratioP1;P1;durP2;ratioP2;P2;SDS_P1;SDS_P2;PMS_P1;PMS_P2;Temp;Humidity;BMP_temperature;BMP_pressure;BME280_temperature;BME280_humidity;BME280_pressure;Samples;Min_cycle;Max_cycle;Signal;HPM_P1;HPM_P2
2022/07/30 00:00:24;;;;;;;7.00;4.63;;;19.80;99.90;;;;;;2126334;27;20019;-69
2022/07/30 00:01:25;;;;;;;11.35;5.03;;;19.80;99.90;;;;;;2123851;27;20030;-69
2022/07/30 00:02:25;;;;;;;10.20;5.07;;;19.70;99.90;;;;;;2127993;27;20029;-69
2022/07/30 00:03:26;;;;;;;7.55;5.43;;;19.70;99.90;;;;;;2125144;27;20031;-69
2022/07/30 00:04:27;;;;;;;8.07;5.03;;;19.70;99.90;;;;;;2128296;27;20034;-69
2022/07/30 00:05:27;;;;;;;8.40;5.10;;;19.70;99.90;;;;;;2128248;27;20122;-69
2022/07/30 00:06:28;;;;;;;8.25;5.25;;;19.70;99.90;;;;;;2127701;27;20027;-69
2022/07/30 00:07:28;;;;;;;6.72;4.88;;;19.60;99.90;;;;;;2129791;27;20476;-69
2022/07/30 00:08:29;;;;;;;6.35;4.65;;;19.60;99.90;;;;;;2130421;27;20034;-69
2022/07/30 00:09:30;;;;;;;5.60;4.88;;;19.60;99.90;;;;;;2125966;27;20015;-69
2022/07/30 00:10:30;;;;;;;6.53;5.13;;;19.60;99.90;;;;;;2125756;27;20027;-69
2022/07/30 00:11:31;;;;;;;6.05;5.03;;;19.60;99.90;;;;;;2125727;27;20023;-69
2022/07/30 00:12:31;;;;;;;5.78;4.65;;;19.60;99.90;;;;;;2128079;27;20374;-69
2022/07/30 00:13:32;;;;;;;6.80;5.07;;;19.60;99.90;;;;;;2123960;27;20025;-69
2022/07/30 00:14:33;;;;;;;7.32;5.10;;;19.60;99.90;;;;;;2124043;27;20103;-69
2022/07/30 00:15:34;;;;;;;8.07;4.53;;;19.60;99.90;;;;;;2130373;27;20054;-69
2022/07/30 00:16:35;;;;;;;5.78;4.60;;;19.50;99.90;;;;;;2129493;27;20023;-69
2022/07/30 00:17:35;;;;;;;7.00;4.72;;;19.50;99.90;;;;;;2124916;27;20027;-69
2022/07/30 00:18:36;;;;;;;8.50;5.70;;;19.50;99.90;;;;;;2126849;27;20095;-69
2022/07/30 00:19:36;;;;;;;6.22;5.18;;;19.50;99.90;;;;;;2124350;27;20097;-69
2022/07/30 00:20:39;;;;;;;8.02;5.57;;;19.50;99.90;;;;;;2127673;27;20062;-69
2022/07/30 00:21:39;;;;;;;7.65;5.03;;;19.40;99.90;;;;;;2126357;27;20500;-69
2022/07/30 00:22:40;;;;;;;7.72;5.38;;;19.40;99.90;;;;;;2125809;27;20457;-69
2022/07/30 00:23:40;;;;;;;6.10;4.53;;;19.40;99.90;;;;;;2125308;27;20030;-69
2022/07/30 00:24:41;;;;;;;7.25;5.00;;;19.40;99.90;;;;;;2127366;27;20105;-69
2022/07/30 00:25:41;;;;;;;7.07;4.93;;;19.40;99.90;;;;;;2127269;27;20044;-69
2022/07/30 00:26:42;;;;;;;6.32;4.93;;;19.40;99.90;;;;;;2127157;27;20481;-69
2022/07/30 00:27:44;;;;;;;7.90;5.43;;;19.30;99.90;;;;;;2127744;27;20082;-69
2022/07/30 00:28:44;;;;;;;7.60;5.10;;;19.30;99.90;;;;;;2126973;27;20027;-69
2022/07/30 00:29:45;;;;;;;11.00;5.03;;;19.30;99.90;;;;;;2128334;27;20053;-69
2022/07/30 00:30:45;;;;;;;6.93;5.32;;;19.30;99.90;;;;;;2128423;27;20066;-69
2022/07/30 00:31:46;;;;;;;6.75;5.40;;;19.30;99.90;;;;;;2125388;27;20023;-69
2022/07/30 00:32:46;;;;;;;7.13;5.75;;;19.20;99.90;;;;;;2130215;27;20118;-69
2022/07/30 00:33:47;;;;;;;9.10;5.70;;;19.20;99.90;;;;;;2127156;27;20023;-69
2022/07/30 00:34:47;;;;;;;7.10;5.30;;;19.20;99.90;;;;;;2129090;27;20078;-69
2022/07/30 00:35:48;;;;;;;7.57;5.35;;;19.20;99.90;;;;;;2127727;27;20042;-69
2022/07/30 00:36:48;;;;;;;8.10;5.22;;;19.20;99.90;;;;;;2127129;27;20069;-69
2022/07/30 00:37:49;;;;;;;7.25;5.20;;;19.20;99.90;;;;;;2127847;27;20026;-69
2022/07/30 00:38:50;;;;;;;8.13;5.38;;;19.10;99.90;;;;;;2128287;27;20031;-69
2022/07/30 00:39:51;;;;;;;4.90;4.38;;;19.10;99.90;;;;;;2126942;27;20115;-69
2022/07/30 00:40:52;;;;;;;6.13;4.53;;;19.10;99.90;;;;;;2129752;27;20037;-69
2022/07/30 00:41:59;;;;;;;7.15;4.85;;;19.10;99.90;;;;;;2128578;27;20023;-69
2022/07/30 00:42:59;;;;;;;7.07;5.70;;;19.10;99.90;;;;;;2128805;27;20022;-69
2022/07/30 00:44:00;;;;;;;6.93;5.45;;;19.10;99.90;;;;;;2126525;27;20030;-69
2022/07/30 00:45:00;;;;;;;7.70;5.63;;;19.10;99.90;;;;;;2127515;27;20019;-69
2022/07/30 00:46:01;;;;;;;7.78;5.72;;;19.00;99.90;;;;;;2128304;27;20011;-69
2022/07/30 00:47:01;;;;;;;6.18;5.55;;;19.00;99.90;;;;;;2127029;27;20029;-69
2022/07/30 00:48:02;;;;;;;7.47;5.03;;;19.00;99.90;;;;;;2127835;27;20021;-69
2022/07/30 00:49:03;;;;;;;6.78;5.25;;;19.00;99.90;;;;;;2128369;27;20097;-69
2022/07/30 00:50:06;;;;;;;7.47;5.68;;;19.00;99.90;;;;;;2127137;27;20086;-69
2022/07/30 00:51:07;;;;;;;7.90;6.13;;;19.00;99.90;;;;;;2128477;27;20026;-69
2022/07/30 00:52:07;;;;;;;9.60;5.85;;;18.90;99.90;;;;;;2128542;27;20042;-69
2022/07/30 00:53:08;;;;;;;9.98;5.95;;;18.90;99.90;;;;;;2129520;27;20018;-69
2022/07/30 00:54:09;;;;;;;7.43;5.50;;;18.90;99.90;;;;;;2125907;27;20513;-69
2022/07/30 00:55:13;;;;;;;7.65;6.07;;;18.90;99.90;;;;;;2127797;27;20097;-69
2022/07/30 00:56:13;;;;;;;7.07;5.25;;;18.80;99.90;;;;;;2127131;27;20046;-69
2022/07/30 00:57:14;;;;;;;5.05;4.63;;;18.90;99.90;;;;;;2129302;27;20022;-69
2022/07/30 00:58:14;;;;;;;5.20;4.70;;;18.80;99.90;;;;;;2127683;27;20030;-69
2022/07/30 00:59:15;;;;;;;8.32;5.78;;;18.80;99.90;;;;;;2129277;27;20541;-69
2022/07/30 01:00:16;;;;;;;8.48;5.95;;;18.80;99.90;;;;;;2129918;27;20466;-69
2022/07/30 01:01:17;;;;;;;6.93;5.38;;;18.80;99.90;;;;;;2128000;27;20011;-69
2022/07/30 01:02:17;;;;;;;5.40;4.82;;;18.80;99.90;;;;;;2126940;27;20050;-69
2022/07/30 01:03:18;;;;;;;8.95;5.13;;;18.70;99.90;;;;;;2127276;27;20034;-69
2022/07/30 01:04:20;;;;;;;9.75;5.20;;;18.80;99.90;;;;;;2128998;27;20029;-69
2022/07/30 01:05:20;;;;;;;7.32;4.68;;;18.70;99.90;;;;;;2128364;27;20101;-69
2022/07/30 01:06:21;;;;;;;7.55;5.22;;;18.70;99.90;;;;;;2128656;27;20024;-69
2022/07/30 01:07:21;;;;;;;6.72;5.50;;;18.70;99.90;;;;;;2129218;27;20083;-69
2022/07/30 01:08:22;;;;;;;7.70;5.72;;;18.70;99.90;;;;;;2126791;27;20093;-69
2022/07/30 01:09:22;;;;;;;7.63;5.38;;;18.70;99.90;;;;;;2128435;27;20023;-69
2022/07/30 01:10:23;;;;;;;7.78;5.35;;;18.60;99.90;;;;;;2127968;27;20018;-69
2022/07/30 01:11:31;;;;;;;6.07;5.25;;;18.60;99.90;;;;;;2125653;27;20022;-69
2022/07/30 01:12:32;;;;;;;9.35;6.07;;;18.60;99.90;;;;;;2128424;27;20034;-69
2022/07/30 01:13:33;;;;;;;8.15;5.13;;;18.60;99.90;;;;;;2125838;27;20344;-69
2022/07/30 01:14:34;;;;;;;8.38;5.25;;;18.60;99.90;;;;;;2128424;27;20076;-69
2022/07/30 01:15:36;;;;;;;5.55;5.03;;;18.60;99.90;;;;;;2126163;27;20473;-69
2022/07/30 01:16:40;;;;;;;8.30;4.88;;;18.50;99.90;;;;;;2124578;27;20027;-69
2022/07/30 01:17:41;;;;;;;9.93;5.38;;;18.50;99.90;;;;;;2126719;27;20064;-69
2022/07/30 01:20:12;;;;;;;5.75;4.82;;;18.40;99.90;;;;;;2127251;27;20023;-69
2022/07/30 01:21:17;;;;;;;6.55;5.47;;;18.40;99.90;;;;;;2126401;27;20015;-69
2022/07/30 01:22:28;;;;;;;6.65;5.20;;;18.40;99.90;;;;;;2125538;27;20451;-69
2022/07/30 01:23:42;;;;;;;8.32;6.22;;;18.40;99.90;;;;;;2127671;27;20031;-69
2022/07/30 01:24:52;;;;;;;7.38;6.45;;;18.40;99.90;;;;;;2126277;27;20098;-69
2022/07/30 01:26:07;;;;;;;7.10;5.90;;;18.30;99.90;;;;;;2127561;27;20033;-69
2022/07/30 01:27:10;;;;;;;7.07;5.78;;;18.30;99.90;;;;;;2127595;27;20019;-69
2022/07/30 01:28:14;;;;;;;8.70;6.53;;;18.30;99.90;;;;;;2126127;27;20462;-69
2022/07/30 01:29:16;;;;;;;10.13;6.03;;;18.20;99.90;;;;;;2126737;27;20070;-69
2022/07/30 01:30:20;;;;;;;6.75;5.97;;;18.20;99.90;;;;;;2127089;27;20015;-69
2022/07/30 01:31:25;;;;;;;8.23;6.30;;;18.20;99.90;;;;;;2125433;27;20142;-69
2022/07/30 01:32:26;;;;;;;8.07;6.22;;;18.20;99.90;;;;;;2127530;27;20035;-69
2022/07/30 01:33:28;;;;;;;10.02;6.50;;;18.20;99.90;;;;;;2126994;27;20366;-69
2022/07/30 01:34:32;;;;;;;6.80;6.10;;;18.20;99.90;;;;;;2120927;27;20065;-69
2022/07/30 01:35:34;;;;;;;8.50;5.85;;;18.20;99.90;;;;;;2120587;27;20043;-69
2022/07/30 01:36:35;;;;;;;9.25;6.88;;;18.10;99.90;;;;;;2127778;27;20033;-69
2022/07/30 01:37:37;;;;;;;8.68;6.82;;;18.10;99.90;;;;;;2126192;27;20053;-69
2022/07/30 01:38:40;;;;;;;8.40;6.03;;;18.10;99.90;;;;;;2123670;27;20019;-69
2022/07/30 01:39:41;;;;;;;7.13;6.40;;;18.10;99.90;;;;;;2127983;27;20565;-69
2022/07/30 01:40:43;;;;;;;7.70;6.30;;;18.10;99.90;;;;;;2125343;27;20031;-69
2022/07/30 01:41:47;;;;;;;7.57;6.10;;;18.10;99.90;;;;;;2127725;27;20110;-69
2022/07/30 01:42:53;;;;;;;9.25;6.60;;;18.10;99.90;;;;;;2127349;27;20223;-69
2022/07/30 01:43:55;;;;;;;7.47;6.00;;;18.10;99.90;;;;;;2126192;27;20023;-69
2022/07/30 01:44:57;;;;;;;7.20;6.03;;;18.00;99.90;;;;;;2128342;27;20536;-69
2022/07/30 01:46:00;;;;;;;6.32;5.53;;;18.00;99.90;;;;;;2125150;27;20110;-71
2022/07/30 01:47:02;;;;;;;10.75;6.15;;;18.00;99.90;;;;;;2125446;27;20065;-69
2022/07/30 01:48:04;;;;;;;8.35;6.40;;;18.00;99.90;;;;;;2125870;27;20086;-69
2022/07/30 01:49:07;;;;;;;6.55;5.85;;;18.00;99.90;;;;;;2126008;27;20512;-69
2022/07/30 01:50:12;;;;;;;6.82;6.07;;;18.00;99.90;;;;;;2126510;27;20052;-69
2022/07/30 01:51:15;;;;;;;7.47;5.50;;;17.90;99.90;;;;;;2125587;27;20031;-69
2022/07/30 01:52:17;;;;;;;5.80;4.90;;;18.00;99.90;;;;;;2125969;27;20022;-69
2022/07/30 01:53:22;;;;;;;9.20;6.95;;;17.90;99.90;;;;;;2125981;27;20035;-69
2022/07/30 01:54:26;;;;;;;10.00;7.28;;;17.90;99.90;;;;;;2128275;27;20576;-69
2022/07/30 01:55:34;;;;;;;6.38;4.90;;;17.90;99.90;;;;;;2126700;27;20364;-69
2022/07/30 01:56:36;;;;;;;7.07;5.45;;;17.90;99.90;;;;;;2125569;27;20015;-69
2022/07/30 01:57:38;;;;;;;8.85;6.60;;;17.90;99.90;;;;;;2125576;27;20031;-69
2022/07/30 01:58:40;;;;;;;7.82;6.40;;;17.90;99.90;;;;;;2126916;27;20382;-69
2022/07/30 01:59:44;;;;;;;6.90;6.22;;;17.80;99.90;;;;;;2124654;27;20057;-69
2022/07/30 02:00:47;;;;;;;13.50;6.03;;;17.80;99.90;;;;;;2126378;27;20023;-69
2022/07/30 02:01:48;;;;;;;7.35;6.40;;;17.80;99.90;;;;;;2124756;27;20080;-69
2022/07/30 02:02:49;;;;;;;8.57;6.60;;;17.80;99.90;;;;;;2118706;27;20105;-69
2022/07/30 02:03:49;;;;;;;8.38;6.25;;;17.80;99.90;;;;;;2115898;27;20494;-69
2022/07/30 02:04:50;;;;;;;7.50;6.30;;;17.80;99.90;;;;;;2125542;27;20050;-69
2022/07/30 02:05:57;;;;;;;8.10;6.43;;;17.70;99.90;;;;;;2126032;27;20374;-69
2022/07/30 02:07:02;;;;;;;8.27;6.18;;;17.80;99.90;;;;;;2126807;27;20030;-69
2022/07/30 02:08:20;;;;;;;8.45;6.28;;;17.70;99.90;;;;;;2127861;27;20018;-69
2022/07/30 02:09:28;;;;;;;7.68;6.75;;;17.70;99.90;;;;;;2128215;27;20072;-69
2022/07/30 02:10:47;;;;;;;7.63;6.60;;;17.70;99.90;;;;;;2124355;27;20058;-69
2022/07/30 02:13:11;;;;;;;8.38;6.00;;;17.60;99.90;;;;;;2124314;27;20027;-69
2022/07/30 02:14:22;;;;;;;7.75;5.88;;;17.60;99.90;;;;;;2126944;27;20106;-69
2022/07/30 02:15:47;;;;;;;7.80;6.78;;;17.60;99.90;;;;;;2127539;27;20038;-69
2022/07/30 02:16:52;;;;;;;6.72;6.03;;;17.60;99.90;;;;;;2126639;27;20019;-69
2022/07/30 02:18:02;;;;;;;7.07;6.00;;;17.50;99.90;;;;;;2128688;27;20019;-69
2022/07/30 02:19:12;;;;;;;;;;;17.50;99.90;;;;;;2127448;27;20477;-69
2022/07/30 02:20:15;;;;;;;9.30;6.05;;;17.40;99.90;;;;;;2119715;27;19947;-69
2022/07/30 02:21:19;;;;;;;7.65;6.45;;;17.40;99.90;;;;;;2108139;28;20475;-69
2022/07/30 02:22:21;;;;;;;10.52;6.47;;;17.40;99.90;;;;;;2116701;27;20027;-69
2022/07/30 02:23:23;;;;;;;9.00;6.35;;;17.40;99.90;;;;;;2126660;27;20137;-69
2022/07/30 02:24:28;;;;;;;7.82;6.10;;;17.40;99.90;;;;;;2126064;27;20402;-69
2022/07/30 02:25:33;;;;;;;6.43;5.72;;;17.50;99.90;;;;;;2124745;27;20037;-69
2022/07/30 02:26:36;;;;;;;6.88;5.97;;;17.40;99.90;;;;;;2128194;27;20481;-69
2022/07/30 02:27:40;;;;;;;10.52;6.45;;;17.40;99.90;;;;;;2124869;27;20042;-69
2022/07/30 02:28:44;;;;;;;7.28;5.78;;;17.40;99.90;;;;;;2126072;27;20023;-69
2022/07/30 02:29:47;;;;;;;9.82;6.90;;;17.40;99.90;;;;;;2124961;27;20160;-69
2022/07/30 02:30:52;;;;;;;7.03;6.20;;;17.40;99.90;;;;;;2124616;27;20132;-69
2022/07/30 02:31:55;;;;;;;10.68;6.32;;;17.40;99.90;;;;;;2125688;27;20031;-69
2022/07/30 02:33:03;;;;;;;7.72;6.28;;;17.40;99.90;;;;;;2125286;27;20401;-69
2022/07/30 02:34:05;;;;;;;8.68;6.22;;;17.40;99.90;;;;;;2127845;27;20006;-69
2022/07/30 02:35:16;;;;;;;8.10;6.55;;;17.30;99.90;;;;;;2125013;27;20423;-69
2022/07/30 02:36:17;;;;;;;6.35;5.50;;;17.30;99.90;;;;;;2127066;27;20071;-69
2022/07/30 02:37:22;;;;;;;7.43;6.70;;;17.30;99.90;;;;;;2124876;27;20023;-69
2022/07/30 02:38:24;;;;;;;7.22;6.60;;;17.30;99.90;;;;;;2126928;27;20015;-69
2022/07/30 02:39:26;;;;;;;7.70;6.30;;;17.30;99.90;;;;;;2127275;27;20025;-69
2022/07/30 02:40:27;;;;;;;6.95;6.25;;;17.30;99.90;;;;;;2126841;27;20026;-69
2022/07/30 02:41:29;;;;;;;9.45;6.63;;;17.30;99.90;;;;;;2126983;27;20021;-69
2022/07/30 02:42:31;;;;;;;7.95;6.60;;;17.30;99.90;;;;;;2127398;27;20023;-69
2022/07/30 02:43:34;;;;;;;7.43;6.28;;;17.30;99.90;;;;;;2127598;27;20083;-69
2022/07/30 02:44:37;;;;;;;9.15;6.53;;;17.20;99.90;;;;;;2125367;27;20682;-69
2022/07/30 02:45:37;;;;;;;7.60;6.32;;;17.20;99.90;;;;;;2125903;27;20027;-69
2022/07/30 02:46:39;;;;;;;9.25;6.47;;;17.20;99.90;;;;;;2123475;27;20034;-69
2022/07/30 02:47:41;;;;;;;8.77;6.55;;;17.20;99.90;;;;;;2122885;27;20070;-69
2022/07/30 02:48:43;;;;;;;9.68;6.43;;;17.20;99.90;;;;;;2123793;27;20031;-69
2022/07/30 02:49:46;;;;;;;7.63;6.80;;;17.20;99.90;;;;;;2127601;27;20498;-69
2022/07/30 02:50:49;;;;;;;8.65;6.82;;;17.20;99.90;;;;;;2124073;27;20091;-69
2022/07/30 02:51:51;;;;;;;8.60;6.88;;;17.20;99.90;;;;;;2127222;27;20781;-69
2022/07/30 02:52:53;;;;;;;8.48;6.68;;;17.10;99.90;;;;;;2127635;27;20070;-69
2022/07/30 02:53:55;;;;;;;9.98;6.57;;;17.10;99.90;;;;;;2128546;27;20018;-69
2022/07/30 02:54:58;;;;;;;7.55;6.75;;;17.10;99.90;;;;;;2126802;27;20023;-69
2022/07/30 02:56:00;;;;;;;7.93;6.53;;;17.20;99.90;;;;;;2123942;27;20023;-69
2022/07/30 02:57:02;;;;;;;7.03;6.32;;;17.10;99.90;;;;;;2123767;27;20133;-69
2022/07/30 02:58:05;;;;;;;8.00;5.78;;;17.10;99.90;;;;;;2126689;27;20019;-69
2022/07/30 02:59:07;;;;;;;7.47;6.78;;;17.10;99.90;;;;;;2126908;27;20503;-69
2022/07/30 03:00:08;;;;;;;8.27;6.53;;;17.10;99.90;;;;;;2125425;27;20378;-69
2022/07/30 03:01:12;;;;;;;8.65;7.18;;;17.10;99.90;;;;;;2124969;27;20481;-69
2022/07/30 03:02:13;;;;;;;8.20;7.38;;;17.10;99.90;;;;;;2124557;27;20018;-69
2022/07/30 03:03:15;;;;;;;7.55;6.65;;;17.00;99.90;;;;;;2123640;27;20015;-69
2022/07/30 03:04:19;;;;;;;8.52;6.88;;;17.00;99.90;;;;;;2125537;27;20386;-69
2022/07/30 03:05:20;;;;;;;7.80;6.93;;;17.00;99.90;;;;;;2122612;27;20020;-69
2022/07/30 03:06:24;;;;;;;7.88;7.15;;;17.00;99.90;;;;;;2127843;27;20023;-69
2022/07/30 03:07:26;;;;;;;9.32;8.05;;;17.00;99.90;;;;;;2127367;27;20030;-69
2022/07/30 03:08:27;;;;;;;8.15;7.00;;;17.00;99.90;;;;;;2122683;27;20015;-69
2022/07/30 03:09:29;;;;;;;8.55;7.20;;;17.00;99.90;;;;;;2127018;27;20018;-69
2022/07/30 03:10:30;;;;;;;9.20;7.15;;;17.00;99.90;;;;;;2124189;27;20467;-69
2022/07/30 03:11:33;;;;;;;7.90;7.10;;;17.00;99.90;;;;;;2126151;27;20387;-69
2022/07/30 03:12:36;;;;;;;9.10;7.35;;;17.00;99.90;;;;;;2126903;27;20053;-69
2022/07/30 03:13:37;;;;;;;7.53;6.80;;;16.90;99.90;;;;;;2126497;27;20385;-69
2022/07/30 03:14:38;;;;;;;11.13;7.25;;;17.00;99.90;;;;;;2127838;27;20018;-69
2022/07/30 03:15:45;;;;;;;10.52;7.72;;;16.90;99.90;;;;;;2129394;27;20027;-69
2022/07/30 03:16:52;;;;;;;9.40;6.68;;;16.90;99.90;;;;;;2128161;27;20041;-69
2022/07/30 03:17:55;;;;;;;7.90;6.25;;;16.90;99.90;;;;;;2126643;27;20046;-69
2022/07/30 03:18:57;;;;;;;9.15;7.32;;;16.90;99.90;;;;;;2125985;27;20634;-69
2022/07/30 03:19:59;;;;;;;7.28;6.57;;;16.90;99.90;;;;;;2127887;27;20029;-69
2022/07/30 03:21:01;;;;;;;8.82;7.72;;;16.90;99.90;;;;;;2125188;27;20026;-69
2022/07/30 03:22:05;;;;;;;7.90;6.78;;;16.90;99.90;;;;;;2127392;27;20050;-69
2022/07/30 03:23:07;;;;;;;7.82;6.85;;;16.90;99.90;;;;;;2130439;27;20381;-69
2022/07/30 03:24:11;;;;;;;9.07;7.20;;;16.90;99.90;;;;;;2128357;27;20105;-69
2022/07/30 03:25:15;;;;;;;8.20;7.18;;;16.80;99.90;;;;;;2130461;27;20106;-69
2022/07/30 03:26:19;;;;;;;8.70;6.30;;;16.80;99.90;;;;;;2129209;27;20023;-69
2022/07/30 03:27:22;;;;;;;8.68;7.38;;;16.80;99.90;;;;;;2129329;27;20007;-69
2022/07/30 03:28:24;;;;;;;7.78;6.43;;;16.80;99.90;;;;;;2128595;27;20034;-69
2022/07/30 03:29:26;;;;;;;6.78;6.18;;;16.80;99.90;;;;;;2123799;27;20076;-69
2022/07/30 03:30:28;;;;;;;9.90;8.02;;;16.80;99.90;;;;;;2126513;27;20019;-69
2022/07/30 03:31:29;;;;;;;9.30;7.80;;;16.80;99.90;;;;;;2128739;27;20530;-69
2022/07/30 03:32:30;;;;;;;8.20;7.00;;;16.80;99.90;;;;;;2130015;27;20031;-69
2022/07/30 03:33:33;;;;;;;9.05;8.07;;;16.80;99.90;;;;;;2129837;27;20030;-69
2022/07/30 03:34:34;;;;;;;9.20;7.68;;;16.80;99.90;;;;;;2129213;27;20392;-69
2022/07/30 03:35:36;;;;;;;10.45;7.63;;;16.80;99.90;;;;;;2127962;27;20109;-69
2022/07/30 03:36:39;;;;;;;8.30;7.50;;;16.70;99.90;;;;;;2130970;27;20054;-69
2022/07/30 03:37:39;;;;;;;11.95;7.10;;;16.70;99.90;;;;;;2129512;27;20050;-69
2022/07/30 03:38:42;;;;;;;9.73;7.65;;;16.70;99.90;;;;;;2128180;27;20026;-69
2022/07/30 03:39:43;;;;;;;8.18;7.38;;;16.70;99.90;;;;;;2128133;27;20087;-69
2022/07/30 03:40:45;;;;;;;8.07;7.28;;;16.70;99.90;;;;;;2128140;27;20347;-69
2022/07/30 03:41:47;;;;;;;8.32;7.53;;;16.70;99.90;;;;;;2128792;27;20042;-69
2022/07/30 03:42:49;;;;;;;9.27;8.27;;;16.70;99.90;;;;;;2128509;27;20114;-69
2022/07/30 03:43:50;;;;;;;9.55;6.93;;;16.70;99.90;;;;;;2128514;27;20030;-69
2022/07/30 03:44:51;;;;;;;8.30;6.93;;;16.70;99.90;;;;;;2125537;27;20038;-69
2022/07/30 03:45:53;;;;;;;8.55;7.65;;;16.70;99.90;;;;;;2126366;27;20015;-69
2022/07/30 03:46:54;;;;;;;8.63;7.03;;;16.70;99.90;;;;;;2129890;27;20363;-69
2022/07/30 03:47:56;;;;;;;9.95;8.07;;;16.60;99.90;;;;;;2127840;27;20023;-69
2022/07/30 03:48:57;;;;;;;10.50;7.00;;;16.60;99.90;;;;;;2127763;27;20014;-69
2022/07/30 03:49:58;;;;;;;7.53;6.72;;;16.60;99.90;;;;;;2127123;27;20033;-69
2022/07/30 03:51:02;;;;;;;9.15;7.03;;;16.60;99.90;;;;;;2128858;27;20110;-69
2022/07/30 03:52:03;;;;;;;7.45;6.60;;;16.60;99.90;;;;;;2126986;27;20018;-69
2022/07/30 03:53:05;;;;;;;7.68;6.65;;;16.60;99.90;;;;;;2121474;27;20103;-69
2022/07/30 03:54:08;;;;;;;8.63;7.72;;;16.60;99.90;;;;;;2119242;27;20051;-69
2022/07/30 03:55:10;;;;;;;7.43;6.70;;;16.60;99.90;;;;;;2128053;27;20018;-69
2022/07/30 03:56:13;;;;;;;8.35;7.55;;;16.60;99.90;;;;;;2127279;27;20021;-69
2022/07/30 03:57:14;;;;;;;7.22;6.53;;;16.60;99.90;;;;;;2127729;27;20155;-69
2022/07/30 03:58:15;;;;;;;11.35;7.72;;;16.60;99.90;;;;;;2128018;27;20071;-69
2022/07/30 03:59:15;;;;;;;11.65;7.70;;;16.60;99.90;;;;;;2127968;27;20111;-69
2022/07/30 04:00:17;;;;;;;8.45;7.75;;;16.60;99.90;;;;;;2129262;27;20102;-69
2022/07/30 04:01:17;;;;;;;7.68;6.85;;;16.60;99.90;;;;;;2128275;27;20637;-69
2022/07/30 04:02:18;;;;;;;9.68;7.40;;;16.60;99.90;;;;;;2126690;27;20023;-69
2022/07/30 04:03:26;;;;;;;11.32;7.40;;;16.60;99.90;;;;;;2127855;27;20015;-69
2022/07/30 04:04:27;;;;;;;10.38;7.25;;;16.60;99.90;;;;;;2128339;27;20018;-69
2022/07/30 04:05:28;;;;;;;8.10;7.00;;;16.60;99.90;;;;;;2126857;27;20068;-69
2022/07/30 04:06:28;;;;;;;8.98;7.28;;;16.50;99.90;;;;;;2128282;27;20570;-69
2022/07/30 04:07:29;;;;;;;10.20;7.35;;;16.50;99.90;;;;;;2127918;27;20324;-69
2022/07/30 04:08:29;;;;;;;7.53;6.78;;;16.50;99.90;;;;;;2128306;27;20031;-69
2022/07/30 04:09:30;;;;;;;10.13;8.00;;;16.50;99.90;;;;;;2128218;27;20052;-69
2022/07/30 04:10:31;;;;;;;8.27;7.47;;;16.50;99.90;;;;;;2128767;27;20021;-69
2022/07/30 04:11:31;;;;;;;8.02;7.18;;;16.50;99.90;;;;;;2128617;27;20480;-69
2022/07/30 04:12:32;;;;;;;7.93;7.03;;;16.50;99.90;;;;;;2128982;27;20033;-69
2022/07/30 04:13:32;;;;;;;8.40;7.35;;;16.50;99.90;;;;;;2126079;27;20148;-69
2022/07/30 04:14:43;;;;;;;8.32;7.32;;;16.50;99.90;;;;;;2126261;27;20034;-69
2022/07/30 04:16:01;;;;;;;9.75;7.95;;;16.50;99.90;;;;;;2126513;27;20034;-69
2022/07/30 04:17:06;;;;;;;8.05;6.35;;;16.50;99.90;;;;;;2128759;27;20026;-69
2022/07/30 04:18:09;;;;;;;10.85;7.38;;;16.50;99.90;;;;;;2127621;27;20011;-69
2022/07/30 04:19:17;;;;;;;9.00;7.35;;;16.50;99.90;;;;;;2129496;27;20023;-69
2022/07/30 04:20:29;;;;;;;7.18;6.47;;;16.50;99.90;;;;;;2126685;27;20552;-69
2022/07/30 04:21:32;;;;;;;7.80;6.80;;;16.50;99.90;;;;;;2124969;27;20103;-69
2022/07/30 04:22:35;;;;;;;10.98;7.85;;;16.50;99.90;;;;;;2127167;27;20031;-69
2022/07/30 04:23:38;;;;;;;9.35;7.15;;;16.50;99.90;;;;;;2127280;27;20022;-69
2022/07/30 04:24:40;;;;;;;8.15;7.20;;;16.50;99.90;;;;;;2128674;27;20019;-69
2022/07/30 04:25:42;;;;;;;7.85;7.05;;;16.50;99.90;;;;;;2127116;27;20133;-69
2022/07/30 04:26:43;;;;;;;8.80;7.75;;;16.50;99.90;;;;;;2128149;27;20023;-69
2022/07/30 04:27:44;;;;;;;7.78;6.85;;;16.50;99.90;;;;;;2127212;27;20750;-69
2022/07/30 04:28:45;;;;;;;8.77;6.85;;;16.50;99.90;;;;;;2126020;27;20682;-69
2022/07/30 04:29:45;;;;;;;9.82;7.90;;;16.50;99.90;;;;;;2127606;27;20050;-69
2022/07/30 04:30:46;;;;;;;8.63;7.22;;;16.50;99.90;;;;;;2126126;27;20388;-69
2022/07/30 04:31:47;;;;;;;8.02;6.57;;;16.50;99.90;;;;;;2126094;27;20034;-69
2022/07/30 04:32:47;;;;;;;7.43;6.60;;;16.50;99.90;;;;;;2124705;27;20034;-69
2022/07/30 04:33:48;;;;;;;9.15;7.18;;;16.50;99.90;;;;;;2126244;27;20144;-69
2022/07/30 04:34:50;;;;;;;7.85;6.70;;;16.50;99.90;;;;;;2127594;27;20073;-69
2022/07/30 04:35:51;;;;;;;9.05;7.40;;;16.50;99.90;;;;;;2127904;27;20337;-69
2022/07/30 04:36:51;;;;;;;8.50;7.50;;;16.50;99.90;;;;;;2127845;27;20015;-69
2022/07/30 04:37:52;;;;;;;8.10;7.30;;;16.50;99.90;;;;;;2121392;27;20100;-69
2022/07/30 04:38:52;;;;;;;10.27;7.78;;;16.60;99.90;;;;;;2120385;27;20047;-69
2022/07/30 04:39:54;;;;;;;10.65;8.30;;;16.60;99.90;;;;;;2128370;27;20102;-69
2022/07/30 04:40:55;;;;;;;8.77;7.90;;;16.60;99.90;;;;;;2125583;27;20019;-69
2022/07/30 04:41:55;;;;;;;10.95;8.02;;;16.60;99.90;;;;;;2125849;27;20026;-69
2022/07/30 04:42:57;;;;;;;11.70;8.57;;;16.60;99.90;;;;;;2121878;27;20041;-69
2022/07/30 04:43:57;;;;;;;9.55;7.75;;;16.60;99.90;;;;;;2121000;27;20079;-69
2022/07/30 04:44:58;;;;;;;12.13;10.88;;;16.60;99.90;;;;;;2126984;27;20121;-69
2022/07/30 04:45:58;;;;;;;12.93;11.30;;;16.60;99.90;;;;;;2127202;27;20034;-69
2022/07/30 04:46:59;;;;;;;12.88;10.32;;;16.70;99.90;;;;;;2127810;27;20054;-69
2022/07/30 04:48:00;;;;;;;13.20;11.00;;;16.70;99.90;;;;;;2125813;27;20020;-69
2022/07/30 04:49:00;;;;;;;12.60;10.10;;;16.70;99.90;;;;;;2124621;27;20031;-69
2022/07/30 04:50:05;;;;;;;11.40;10.13;;;16.70;99.90;;;;;;2126064;27;20016;-69
2022/07/30 04:51:12;;;;;;;12.68;10.05;;;16.80;99.90;;;;;;2127918;27;20476;-69
2022/07/30 04:52:14;;;;;;;10.38;9.23;;;16.80;99.90;;;;;;2126767;27;20681;-69
2022/07/30 04:53:17;;;;;;;10.68;9.05;;;16.80;99.90;;;;;;2128193;27;20086;-69
2022/07/30 04:54:20;;;;;;;9.88;8.27;;;16.90;99.90;;;;;;2127970;27;20027;-69
2022/07/30 04:55:22;;;;;;;9.30;8.30;;;16.90;99.90;;;;;;2127500;27;20061;-69
2022/07/30 04:56:24;;;;;;;11.57;8.70;;;16.90;99.90;;;;;;2125137;27;20558;-69
2022/07/30 04:57:27;;;;;;;10.25;8.77;;;16.90;99.90;;;;;;2125837;27;20015;-69
2022/07/30 04:58:28;;;;;;;9.50;8.57;;;16.90;99.90;;;;;;2125719;27;20033;-69
2022/07/30 04:59:29;;;;;;;11.63;8.90;;;17.00;99.90;;;;;;2126929;27;20616;-69
2022/07/30 05:00:31;;;;;;;12.20;9.20;;;17.00;99.90;;;;;;2126028;27;20023;-69
2022/07/30 05:01:36;;;;;;;10.43;9.30;;;17.10;99.90;;;;;;2124474;27;20023;-69
2022/07/30 05:02:40;;;;;;;10.75;9.65;;;17.10;99.90;;;;;;2126998;27;20316;-69
2022/07/30 05:03:42;;;;;;;12.52;10.57;;;17.20;99.90;;;;;;2123957;27;20015;-69
2022/07/30 05:04:44;;;;;;;13.60;9.85;;;17.20;99.90;;;;;;2125785;27;20034;-69
2022/07/30 05:05:45;;;;;;;11.25;10.13;;;17.20;99.90;;;;;;2126804;27;20019;-69
2022/07/30 05:06:47;;;;;;;9.38;8.52;;;17.30;99.90;;;;;;2126046;27;20447;-69
2022/07/30 05:07:47;;;;;;;11.93;10.20;;;17.40;99.90;;;;;;2125565;27;20063;-69
2022/07/30 05:08:48;;;;;;;11.40;9.65;;;17.40;99.90;;;;;;2128475;27;20039;-69
2022/07/30 05:09:49;;;;;;;10.80;9.38;;;17.40;99.90;;;;;;2126877;27;20379;-69
2022/07/30 05:10:50;;;;;;;12.85;10.00;;;17.50;99.90;;;;;;2127829;27;20023;-69
2022/07/30 05:11:51;;;;;;;11.10;9.70;;;17.60;99.90;;;;;;2128060;27;20121;-69
2022/07/30 05:12:52;;;;;;;14.73;9.80;;;17.60;99.90;;;;;;2118154;27;20031;-69
2022/07/30 05:13:53;;;;;;;15.05;11.80;;;17.70;99.90;;;;;;2116816;27;20102;-69
2022/07/30 05:14:53;;;;;;;16.30;12.85;;;17.80;99.90;;;;;;2124578;27;20015;-69
2022/07/30 05:15:54;;;;;;;16.35;12.95;;;17.80;99.90;;;;;;2125967;27;20030;-69
2022/07/30 05:16:54;;;;;;;19.70;13.38;;;17.90;99.90;;;;;;2125788;27;20057;-69
2022/07/30 05:17:56;;;;;;;20.00;13.48;;;18.00;99.90;;;;;;2126857;27;20514;-69
2022/07/30 05:18:56;;;;;;;16.33;13.05;;;18.10;99.90;;;;;;2127664;27;20539;-69
2022/07/30 05:19:57;;;;;;;17.58;14.05;;;18.10;99.90;;;;;;2127974;27;20413;-69
2022/07/30 05:20:58;;;;;;;15.00;13.40;;;18.20;99.90;;;;;;2126516;27;20007;-69
2022/07/30 05:21:58;;;;;;;17.35;14.05;;;18.20;99.90;;;;;;2124326;27;20046;-69
2022/07/30 05:23:01;;;;;;;13.93;12.48;;;18.20;99.90;;;;;;2123087;27;20526;-69
2022/07/30 05:24:02;;;;;;;17.98;14.30;;;18.30;99.90;;;;;;2125527;27;20034;-69
2022/07/30 05:25:03;;;;;;;16.83;13.38;;;18.40;99.90;;;;;;2127926;27;20061;-69
2022/07/30 05:26:04;;;;;;;24.10;17.30;;;18.40;99.90;;;;;;2126737;27;20528;-69